KOLE/OLE METAR and TAF weather

Enter ICAO airport designator
Station Type Date Time Source
KOLE METAR 2022/06/28 15:15 UTC NOAA

KOLE 281515Z AUTO 36005KT 10SM CLR 15/08 A3025 RMK AO2


Station Type Date Time Source
KOLE Decoded METAR 2022/06/28 15:15 UTC NOAA

Olean Municipal, NY, United States (KOLE) 42-14N 078-22W
Jun 28, 2022 - 11:15 AM EDT / 2022.06.28 1515 UTC
Wind: from the N (360 degrees) at 6 MPH (5 KT):0
Visibility: 10 mile(s):0
Sky conditions: clear
Temperature: 59 F (15 C)
Dew Point: 46 F (8 C)
Relative Humidity: 62%
Pressure (altimeter): 30.25 in. Hg (1024 hPa)
ob: KOLE 281515Z AUTO 36005KT 10SM CLR 15/08 A3025 RMK AO2
cycle: 15

Station Type Date Time Source
KOLE TAF UTC NOAA

Error!

Example: see airport list